X  Cerrar Datos meteorológicos de aviación METAR     EDDH Hamburg Helmut Schmidt Airport
Temperatura
34°F Temperatura
28°F Punto de rocío
81% Humedad



Viento
1 MPH
2 KM/H
0 M/S
1 NUDO



Calma
N
Condiciones actuales

Nublado Nublado
Presión 1028.92 (hPa) - 30.38 (inHg)
Visibilidad 6.2 (milla) - 10 (km)
Aeropuerto
Código de aeropuerto EDDH

localidad: Hamburg Helmut Schmidt Airport
Distancia: 11 (mi)

Metar:
EDDH 272320Z AUTO VRB01KT 9999 OVC025 01/M02 Q1029 NOSIG

Hora: 28-01-2023 00:20 CET